Time;durP1;ratioP1;P1;durP2;ratioP2;P2;SDS_P1;SDS_P2;PMS_P1;PMS_P2;Temp;Humidity;BMP_temperature;BMP_pressure;BME280_temperature;BME280_humidity;BME280_pressure;Samples;Min_cycle;Max_cycle;Signal;HPM_P1;HPM_P2
2022/07/04 00:00:27;;;;;;;0.15;0.10;;;14.90;99.90;;;;;;5070277;28;20090;-67
2022/07/04 00:02:53;;;;;;;0.00;0.00;;;14.90;99.90;;;;;;5071333;28;20396;-67
2022/07/04 00:05:19;;;;;;;0.20;0.20;;;14.90;99.90;;;;;;5070970;28;20053;-66
2022/07/04 00:07:47;;;;;;;0.00;0.00;;;14.90;99.90;;;;;;5074096;28;20105;-67
2022/07/04 00:10:15;;;;;;;0.30;0.17;;;14.80;99.90;;;;;;5073224;28;20059;-67
2022/07/04 00:12:41;;;;;;;0.20;0.20;;;14.80;99.90;;;;;;5074206;28;20045;-67
2022/07/04 00:15:09;;;;;;;0.30;0.30;;;14.80;99.90;;;;;;5075916;28;20050;-67
2022/07/04 00:17:35;;;;;;;0.38;0.38;;;14.70;99.90;;;;;;5073505;28;20426;-67
2022/07/04 00:20:02;;;;;;;0.10;0.10;;;14.70;99.90;;;;;;5068046;28;20067;-67
2022/07/04 00:22:27;;;;;;;0.10;0.10;;;14.60;99.90;;;;;;5046860;28;20041;-67
2022/07/04 00:24:53;;;;;;;0.08;0.08;;;14.50;99.90;;;;;;5051465;28;20476;-66
2022/07/04 00:27:19;;;;;;;0.20;0.20;;;14.50;99.90;;;;;;5050927;28;20053;-66
2022/07/04 00:29:44;;;;;;;0.63;0.63;;;14.50;99.90;;;;;;5051205;28;20064;-67
2022/07/04 00:32:10;;;;;;;0.10;0.10;;;14.50;99.90;;;;;;5089217;28;20040;-67
2022/07/04 00:34:36;;;;;;;0.10;0.10;;;14.50;99.90;;;;;;5090679;28;20048;-67
2022/07/04 00:37:02;;;;;;;0.28;0.28;;;14.40;99.90;;;;;;5068710;28;20046;-67
2022/07/04 00:39:28;;;;;;;0.00;0.00;;;14.50;99.90;;;;;;5070375;28;20056;-67
2022/07/04 00:41:53;;;;;;;0.10;0.10;;;14.50;99.90;;;;;;5070511;28;20052;-67
2022/07/04 00:44:20;;;;;;;0.68;0.68;;;14.50;99.90;;;;;;5070498;28;20396;-67
2022/07/04 00:46:46;;;;;;;1.00;0.55;;;14.60;99.90;;;;;;5069856;28;20041;-67
2022/07/04 00:49:13;;;;;;;0.10;0.10;;;14.70;99.90;;;;;;5069962;28;20044;-67
2022/07/04 00:51:41;;;;;;;0.30;0.30;;;14.80;99.90;;;;;;5070688;28;20056;-67
2022/07/04 00:54:08;;;;;;;0.22;0.22;;;14.60;99.90;;;;;;5076963;28;20082;-66
2022/07/04 00:56:38;;;;;;;1.55;0.70;;;14.60;99.90;;;;;;5060960;28;20084;-67
2022/07/04 00:59:05;;;;;;;0.05;0.05;;;14.70;99.90;;;;;;5061588;28;20069;-67
2022/07/04 01:01:31;;;;;;;0.22;0.17;;;14.70;99.90;;;;;;5079552;28;20049;-67
2022/07/04 01:03:57;;;;;;;0.08;0.08;;;14.70;99.90;;;;;;5051290;28;20044;-67
2022/07/04 01:06:22;;;;;;;6.43;1.45;;;14.80;99.90;;;;;;5051823;28;20068;-67
2022/07/04 01:08:48;;;;;;;0.20;0.20;;;14.80;99.90;;;;;;5090775;28;20089;-67
2022/07/04 01:11:14;;;;;;;0.65;0.65;;;14.70;99.90;;;;;;5084301;28;20854;-67
2022/07/04 01:13:41;;;;;;;0.00;0.00;;;14.70;99.90;;;;;;5073553;28;20044;-67
2022/07/04 01:16:07;;;;;;;0.08;0.08;;;14.70;99.90;;;;;;5070993;28;20055;-66
2022/07/04 01:18:33;;;;;;;0.13;0.13;;;14.70;99.90;;;;;;5079822;28;20044;-67
2022/07/04 01:20:59;;;;;;;0.00;0.00;;;14.80;99.90;;;;;;5088387;28;20411;-67
2022/07/04 01:23:24;;;;;;;0.00;0.00;;;14.80;99.90;;;;;;5088793;28;20063;-66
2022/07/04 01:25:50;;;;;;;0.10;0.10;;;14.90;99.90;;;;;;5061851;28;20044;-66
2022/07/04 01:28:18;;;;;;;0.00;0.00;;;14.80;99.90;;;;;;5070108;28;20574;-67
2022/07/04 01:30:43;;;;;;;0.15;0.15;;;14.90;99.90;;;;;;5069556;28;20040;-67
2022/07/04 01:33:09;;;;;;;0.10;0.10;;;14.80;99.90;;;;;;5070154;28;20048;-66
2022/07/04 01:35:34;;;;;;;1.10;0.70;;;14.80;99.90;;;;;;5046736;28;20045;-67
2022/07/04 01:38:00;;;;;;;0.10;0.10;;;14.80;99.90;;;;;;5072832;28;20032;-67
2022/07/04 01:40:26;;;;;;;0.20;0.20;;;14.80;99.90;;;;;;5090014;28;20054;-67
2022/07/04 01:42:52;;;;;;;1.27;1.08;;;14.80;99.90;;;;;;5074347;28;20130;-67
2022/07/04 01:45:18;;;;;;;0.10;0.10;;;14.80;99.90;;;;;;5047734;28;20135;-66
2022/07/04 01:47:43;;;;;;;0.10;0.10;;;14.70;99.90;;;;;;5050064;28;20090;-67
2022/07/04 01:50:13;;;;;;;0.13;0.13;;;14.70;99.90;;;;;;5062043;28;20052;-67
2022/07/04 01:52:40;;;;;;;1.85;0.45;;;14.80;99.90;;;;;;5069241;28;20052;-67
2022/07/04 01:55:07;;;;;;;0.15;0.08;;;14.80;99.90;;;;;;5051804;28;20856;-67
2022/07/04 01:57:33;;;;;;;0.10;0.10;;;14.70;99.90;;;;;;5067567;28;20617;-67
2022/07/04 02:02:43;;;;;;;0.00;0.00;;;14.70;99.90;;;;;;5069959;28;20113;-67
2022/07/04 02:05:09;;;;;;;0.10;0.10;;;14.60;99.90;;;;;;5067472;28;20036;-67
2022/07/04 02:07:34;;;;;;;1.45;1.33;;;14.60;99.90;;;;;;5068951;28;20369;-67
2022/07/04 02:10:00;;;;;;;0.10;0.10;;;14.60;99.90;;;;;;5069825;28;20036;-67
2022/07/04 02:15:10;;;;;;;0.08;0.08;;;14.70;99.90;;;;;;5064526;28;20132;-67
2022/07/04 02:17:35;;;;;;;0.10;0.10;;;14.70;99.90;;;;;;5047909;28;20441;-67
2022/07/04 02:20:01;;;;;;;0.10;0.10;;;14.70;99.90;;;;;;5086285;28;20047;-66
2022/07/04 02:22:27;;;;;;;0.10;0.10;;;14.70;99.90;;;;;;5089665;28;20156;-67
2022/07/04 02:24:52;;;;;;;0.15;0.15;;;14.80;99.90;;;;;;5090261;28;20048;-66
2022/07/04 02:27:18;;;;;;;0.00;0.00;;;14.70;99.90;;;;;;5086413;28;20085;-67
2022/07/04 02:29:44;;;;;;;0.10;0.10;;;14.70;99.90;;;;;;5093301;28;20146;-67
2022/07/04 02:32:09;;;;;;;0.10;0.10;;;14.70;99.90;;;;;;5091512;28;20040;-66
2022/07/04 02:34:35;;;;;;;0.10;0.10;;;14.80;99.90;;;;;;5092665;28;20043;-67
2022/07/04 02:37:01;;;;;;;0.10;0.10;;;14.80;99.90;;;;;;5089065;28;20051;-66
2022/07/04 02:39:27;;;;;;;0.20;0.20;;;14.70;99.90;;;;;;5072738;28;20085;-67
2022/07/04 02:41:52;;;;;;;0.17;0.17;;;14.70;99.90;;;;;;5048937;28;20041;-67
2022/07/04 02:44:18;;;;;;;0.10;0.10;;;14.80;99.90;;;;;;5072648;28;20048;-67
2022/07/04 02:46:43;;;;;;;0.00;0.00;;;14.70;99.90;;;;;;5073315;28;20040;-66
2022/07/04 02:49:09;;;;;;;0.10;0.10;;;14.70;99.90;;;;;;5070318;28;20048;-67
2022/07/04 02:51:35;;;;;;;0.00;0.00;;;14.80;99.90;;;;;;5051528;28;20055;-70
2022/07/04 02:54:00;;;;;;;0.10;0.10;;;14.70;99.90;;;;;;5055894;28;20040;-69
2022/07/04 02:56:26;;;;;;;0.10;0.10;;;14.70;99.90;;;;;;5071814;28;20044;-70
2022/07/04 02:58:52;;;;;;;0.10;0.10;;;14.70;99.90;;;;;;5071200;28;20053;-70
2022/07/04 03:01:19;;;;;;;0.28;0.28;;;14.80;99.90;;;;;;5072642;28;20098;-69
2022/07/04 03:03:45;;;;;;;0.00;0.00;;;14.80;99.90;;;;;;5072483;28;20045;-69
2022/07/04 03:06:11;;;;;;;0.00;0.00;;;14.70;99.90;;;;;;5072915;28;20040;-69
2022/07/04 03:08:37;;;;;;;0.10;0.10;;;14.80;99.90;;;;;;5080143;28;20047;-69
2022/07/04 03:11:03;;;;;;;0.10;0.10;;;14.70;99.90;;;;;;5066597;28;20045;-69
2022/07/04 03:13:28;;;;;;;1.45;1.13;;;14.70;99.90;;;;;;5034394;28;20508;-69
2022/07/04 03:15:54;;;;;;;0.00;0.00;;;14.70;99.90;;;;;;5067823;28;20048;-69
2022/07/04 03:18:20;;;;;;;0.30;0.30;;;14.80;99.90;;;;;;5049852;28;20120;-70
2022/07/04 03:20:46;;;;;;;0.20;0.20;;;14.80;99.90;;;;;;5051795;28;20040;-69
2022/07/04 03:23:12;;;;;;;0.10;0.10;;;14.80;99.90;;;;;;5085479;28;20036;-70
2022/07/04 03:25:39;;;;;;;1.00;0.38;;;14.80;99.90;;;;;;5092579;28;20085;-70
2022/07/04 03:28:05;;;;;;;0.10;0.10;;;14.80;99.90;;;;;;5083316;28;20098;-69
2022/07/04 03:30:31;;;;;;;0.35;0.30;;;14.70;99.90;;;;;;5073436;28;20055;-69
2022/07/04 03:32:56;;;;;;;0.30;0.30;;;14.80;99.90;;;;;;5092780;28;20048;-69
2022/07/04 03:35:22;;;;;;;0.00;0.00;;;14.70;99.90;;;;;;5092602;28;20372;-70
2022/07/04 03:37:48;;;;;;;0.10;0.10;;;14.70;99.90;;;;;;5070074;28;20079;-69
2022/07/04 03:40:13;;;;;;;0.10;0.10;;;14.70;99.90;;;;;;5092186;28;20040;-69
2022/07/04 03:42:39;;;;;;;0.00;0.00;;;14.70;99.90;;;;;;5076695;28;20141;-70
2022/07/04 03:45:05;;;;;;;0.30;0.30;;;14.70;99.90;;;;;;5071272;28;20040;-69
2022/07/04 03:47:31;;;;;;;0.10;0.10;;;14.70;99.90;;;;;;5072008;28;20119;-70
2022/07/04 03:49:57;;;;;;;0.10;0.10;;;14.70;99.90;;;;;;5074782;28;20115;-70
2022/07/04 03:52:23;;;;;;;0.10;0.10;;;14.80;99.90;;;;;;5091307;28;20377;-69
2022/07/04 03:54:48;;;;;;;0.20;0.20;;;14.80;99.90;;;;;;5092713;28;20040;-69
2022/07/04 03:57:14;;;;;;;0.00;0.00;;;14.80;99.90;;;;;;5088995;28;20113;-70
2022/07/04 03:59:40;;;;;;;0.03;0.03;;;14.90;99.90;;;;;;5090307;28;20525;-69
2022/07/04 04:02:05;;;;;;;0.10;0.10;;;14.90;99.90;;;;;;5071495;28;20109;-69
2022/07/04 04:07:15;;;;;;;0.00;0.00;;;14.90;99.90;;;;;;5091324;28;20090;-69
2022/07/04 04:09:41;;;;;;;0.47;0.35;;;15.00;99.90;;;;;;5086822;28;20076;-70
2022/07/04 04:12:06;;;;;;;0.00;0.00;;;15.00;99.90;;;;;;5076675;28;20055;-69
2022/07/04 04:14:32;;;;;;;0.10;0.10;;;15.00;99.90;;;;;;5062353;28;20099;-70
2022/07/04 04:16:58;;;;;;;0.10;0.10;;;15.00;99.90;;;;;;5090661;28;20471;-69
2022/07/04 04:19:23;;;;;;;0.10;0.10;;;15.00;99.90;;;;;;5091630;28;20040;-70
2022/07/04 04:21:49;;;;;;;0.00;0.00;;;15.00;99.90;;;;;;5079019;28;20049;-69
2022/07/04 04:24:14;;;;;;;0.00;0.00;;;15.10;99.90;;;;;;5070997;28;20128;-70
2022/07/04 04:26:40;;;;;;;0.10;0.10;;;15.10;99.90;;;;;;5052484;28;20400;-70
2022/07/04 04:29:06;;;;;;;0.52;0.45;;;15.10;99.90;;;;;;5076185;28;20040;-70
2022/07/04 04:31:31;;;;;;;0.00;0.00;;;15.10;99.90;;;;;;5091258;28;20039;-70
2022/07/04 04:33:57;;;;;;;0.28;0.28;;;15.10;99.90;;;;;;5087182;28;20089;-70
2022/07/04 04:36:24;;;;;;;0.22;0.22;;;15.10;99.90;;;;;;5063061;28;20516;-70
2022/07/04 04:38:49;;;;;;;0.10;0.10;;;15.10;99.90;;;;;;5074019;28;20083;-70
2022/07/04 04:41:16;;;;;;;0.00;0.00;;;15.20;99.90;;;;;;5090485;28;20067;-70
2022/07/04 04:43:42;;;;;;;1.10;0.45;;;15.20;99.90;;;;;;5072650;28;20047;-70
2022/07/04 04:46:08;;;;;;;0.03;0.03;;;15.20;99.90;;;;;;5072158;28;20403;-69
2022/07/04 04:48:33;;;;;;;0.10;0.10;;;15.30;99.90;;;;;;5062117;28;20074;-70
2022/07/04 04:50:59;;;;;;;0.10;0.10;;;15.30;99.90;;;;;;5070095;28;20051;-70
2022/07/04 04:53:25;;;;;;;0.10;0.10;;;15.30;99.90;;;;;;5052835;28;20055;-69
2022/07/04 04:55:54;;;;;;;0.10;0.10;;;15.40;99.90;;;;;;5069144;28;20062;-70
2022/07/04 04:58:20;;;;;;;0.00;0.00;;;15.40;99.90;;;;;;5078504;28;20055;-70
2022/07/04 05:00:48;;;;;;;0.10;0.10;;;15.50;99.90;;;;;;5049655;28;20053;-70
2022/07/04 05:03:13;;;;;;;0.10;0.10;;;15.50;99.90;;;;;;5049691;28;20408;-70
2022/07/04 05:05:39;;;;;;;0.20;0.20;;;15.60;99.90;;;;;;5037724;28;20059;-70
2022/07/04 05:08:05;;;;;;;0.10;0.10;;;15.60;99.90;;;;;;5071879;28;20055;-70
2022/07/04 05:10:30;;;;;;;0.00;0.00;;;15.70;99.90;;;;;;5053718;28;20051;-70
2022/07/04 05:12:56;;;;;;;0.00;0.00;;;15.80;99.90;;;;;;5082958;28;20504;-70
2022/07/04 05:15:21;;;;;;;0.38;0.38;;;15.80;99.90;;;;;;5076605;28;20072;-70
2022/07/04 05:17:47;;;;;;;0.00;0.00;;;15.90;99.90;;;;;;5046364;28;20049;-70
2022/07/04 05:20:13;;;;;;;0.00;0.00;;;16.00;99.90;;;;;;5048534;28;20041;-69
2022/07/04 05:22:39;;;;;;;0.15;0.15;;;16.10;99.90;;;;;;5032259;28;20040;-70
2022/07/04 05:25:05;;;;;;;0.08;0.08;;;16.10;99.90;;;;;;5049471;28;20440;-69
2022/07/04 05:27:30;;;;;;;0.10;0.10;;;16.20;99.90;;;;;;5061819;28;20079;-69
2022/07/04 05:29:57;;;;;;;0.10;0.10;;;16.20;99.90;;;;;;5071569;28;20058;-70
2022/07/04 05:32:23;;;;;;;0.00;0.00;;;16.30;99.90;;;;;;5090581;28;20079;-70
2022/07/04 05:34:49;;;;;;;0.00;0.00;;;16.40;99.90;;;;;;5086546;28;20090;-70
2022/07/04 05:37:14;;;;;;;0.20;0.20;;;16.40;99.90;;;;;;5068999;28;20048;-70
2022/07/04 05:39:40;;;;;;;0.10;0.10;;;16.50;99.90;;;;;;5068379;28;20431;-70
2022/07/04 05:42:06;;;;;;;0.20;0.20;;;16.50;99.90;;;;;;5069914;28;20084;-70
2022/07/04 05:44:31;;;;;;;0.10;0.10;;;16.60;99.90;;;;;;5069445;28;20045;-70
2022/07/04 05:46:57;;;;;;;2.20;0.90;;;16.60;99.90;;;;;;5070276;28;20047;-70
2022/07/04 05:49:22;;;;;;;0.10;0.10;;;16.70;99.90;;;;;;5077736;28;20101;-69
2022/07/04 05:51:48;;;;;;;0.08;0.08;;;16.80;99.90;;;;;;5089483;28;20046;-70
2022/07/04 05:54:13;;;;;;;0.10;0.10;;;16.80;99.90;;;;;;5087466;28;20051;-70
2022/07/04 05:56:41;;;;;;;0.10;0.10;;;16.90;99.90;;;;;;5089560;28;20052;-69
2022/07/04 05:59:07;;;;;;;0.55;0.55;;;16.90;99.90;;;;;;5088964;28;20407;-70
2022/07/04 06:01:33;;;;;;;0.10;0.10;;;16.90;99.90;;;;;;5078236;28;20052;-70
2022/07/04 06:03:59;;;;;;;0.10;0.10;;;17.00;99.90;;;;;;5071997;28;20056;-70
2022/07/04 06:06:24;;;;;;;0.10;0.10;;;17.00;99.90;;;;;;5055301;28;20064;-70
2022/07/04 06:08:50;;;;;;;0.00;0.00;;;17.10;99.90;;;;;;5074308;28;20475;-70
2022/07/04 06:11:17;;;;;;;0.00;0.00;;;17.20;99.90;;;;;;5074349;28;20040;-70
2022/07/04 06:13:43;;;;;;;0.30;0.13;;;17.30;99.90;;;;;;5049090;28;20048;-70
2022/07/04 06:16:08;;;;;;;0.03;0.03;;;17.30;99.90;;;;;;5072884;28;20404;-70
2022/07/04 06:18:34;;;;;;;0.00;0.00;;;17.40;99.90;;;;;;5054317;28;20067;-69
2022/07/04 06:21:00;;;;;;;0.00;0.00;;;17.40;99.90;;;;;;5072297;28;20043;-70
2022/07/04 06:23:25;;;;;;;0.43;0.43;;;17.40;99.90;;;;;;5073572;28;20484;-70
2022/07/04 06:25:51;;;;;;;0.10;0.10;;;17.40;99.90;;;;;;5068805;28;20097;-70
2022/07/04 06:28:17;;;;;;;0.10;0.10;;;17.50;99.90;;;;;;5092592;28;20048;-70
2022/07/04 06:30:42;;;;;;;0.65;0.65;;;17.50;99.90;;;;;;5061403;28;20131;-70
2022/07/04 06:33:08;;;;;;;0.20;0.20;;;17.50;99.90;;;;;;5050846;28;20052;-70
2022/07/04 06:35:45;;;;;;;0.05;0.05;;;17.40;99.90;;;;;;5034922;28;20049;-69
2022/07/04 06:38:16;;;;;;;0.00;0.00;;;17.40;99.90;;;;;;5093086;28;20044;-70
2022/07/04 06:40:43;;;;;;;0.00;0.00;;;17.50;99.90;;;;;;5085919;28;20411;-70
2022/07/04 06:43:09;;;;;;;0.57;0.32;;;17.60;99.90;;;;;;5073078;28;20036;-70
2022/07/04 06:45:35;;;;;;;0.10;0.10;;;17.70;99.90;;;;;;5072935;28;20048;-70
2022/07/04 06:48:03;;;;;;;0.10;0.10;;;17.70;99.90;;;;;;5072087;28;20064;-70
2022/07/04 06:50:32;;;;;;;0.03;0.03;;;17.80;99.90;;;;;;5057297;28;20135;-70
2022/07/04 06:53:01;;;;;;;0.08;0.08;;;17.80;99.90;;;;;;5093017;28;20054;-70
2022/07/04 06:55:27;;;;;;;1.10;0.25;;;17.90;99.90;;;;;;5091869;28;20048;-70
2022/07/04 06:57:53;;;;;;;0.00;0.00;;;17.90;99.90;;;;;;5092416;28;20040;-70
2022/07/04 07:00:19;;;;;;;0.10;0.10;;;18.00;99.90;;;;;;5077126;28;20098;-70
2022/07/04 07:02:44;;;;;;;0.43;0.43;;;18.10;99.90;;;;;;5070839;28;20032;-70
2022/07/04 07:05:10;;;;;;;0.05;0.05;;;18.20;99.90;;;;;;5077978;28;20052;-70
2022/07/04 07:07:35;;;;;;;0.00;0.00;;;18.20;99.90;;;;;;5085903;28;20083;-70
2022/07/04 07:10:02;;;;;;;0.00;0.00;;;18.30;99.90;;;;;;5077629;28;20403;-70
2022/07/04 07:12:29;;;;;;;0.00;0.00;;;18.30;99.90;;;;;;5084911;28;20498;-70
2022/07/04 07:14:55;;;;;;;0.03;0.03;;;18.20;99.90;;;;;;5082883;28;20040;-70
2022/07/04 07:17:21;;;;;;;4.15;1.20;;;18.20;99.90;;;;;;5085036;28;20044;-70
2022/07/04 07:19:47;;;;;;;0.10;0.10;;;18.10;99.90;;;;;;5092058;28;20044;-70
2022/07/04 07:22:15;;;;;;;0.30;0.30;;;18.10;99.90;;;;;;5091613;28;20502;-70
2022/07/04 07:24:40;;;;;;;0.00;0.00;;;18.20;99.90;;;;;;5068673;28;20540;-70
2022/07/04 07:27:08;;;;;;;0.08;0.08;;;18.30;99.90;;;;;;5071029;28;20171;-70
2022/07/04 07:29:33;;;;;;;0.10;0.10;;;18.30;99.90;;;;;;5068417;28;20048;-70
2022/07/04 07:31:59;;;;;;;0.03;0.03;;;18.40;99.90;;;;;;5071227;28;20055;-70
2022/07/04 07:34:25;;;;;;;0.10;0.10;;;18.40;99.90;;;;;;5070839;28;20150;-70
2022/07/04 07:36:51;;;;;;;0.05;0.05;;;18.40;99.90;;;;;;5069184;28;20076;-70
2022/07/04 07:39:16;;;;;;;2.70;0.40;;;18.40;99.90;;;;;;5049626;28;20056;-70
2022/07/04 07:41:42;;;;;;;0.10;0.10;;;18.50;99.90;;;;;;5051221;28;20495;-70
2022/07/04 07:44:08;;;;;;;0.17;0.17;;;18.50;99.90;;;;;;5050140;28;20514;-70
2022/07/04 07:46:33;;;;;;;0.00;0.00;;;18.50;99.90;;;;;;5084810;28;20051;-70
2022/07/04 07:48:59;;;;;;;0.10;0.10;;;18.50;99.90;;;;;;5090842;28;20052;-70
2022/07/04 07:51:24;;;;;;;0.00;0.00;;;18.60;99.90;;;;;;5076211;28;20090;-70
2022/07/04 07:53:50;;;;;;;0.00;0.00;;;18.60;99.90;;;;;;5071177;28;20143;-70
2022/07/04 07:56:16;;;;;;;0.03;0.03;;;18.60;99.90;;;;;;5041328;28;1042187;-70
2022/07/04 07:58:41;;;;;;;0.00;0.00;;;18.50;99.90;;;;;;5091291;28;20302;-70
2022/07/04 08:01:07;;;;;;;0.00;0.00;;;18.60;99.90;;;;;;5087513;28;20480;-70
2022/07/04 08:06:17;;;;;;;0.00;0.00;;;18.80;99.90;;;;;;5052861;28;20071;-70
2022/07/04 08:08:43;;;;;;;0.00;0.00;;;18.90;99.90;;;;;;5075616;28;20075;-70
2022/07/04 08:11:10;;;;;;;0.30;0.22;;;18.90;99.90;;;;;;5065040;28;20511;-70
2022/07/04 08:13:36;;;;;;;0.35;0.35;;;19.00;99.90;;;;;;5050611;28;20056;-70
2022/07/04 08:16:01;;;;;;;0.10;0.10;;;19.00;99.90;;;;;;5060139;28;20086;-70
2022/07/04 08:18:27;;;;;;;0.20;0.20;;;19.20;99.90;;;;;;5071349;28;20086;-70
2022/07/04 08:20:53;;;;;;;0.20;0.20;;;19.20;99.90;;;;;;5070836;28;20037;-70
2022/07/04 08:23:18;;;;;;;0.00;0.00;;;19.20;99.90;;;;;;5062485;28;20046;-70
2022/07/04 08:25:44;;;;;;;0.08;0.08;;;19.30;99.90;;;;;;5067826;28;20036;-70
2022/07/04 08:28:09;;;;;;;0.00;0.00;;;19.50;99.90;;;;;;5049462;28;20049;-70
2022/07/04 08:30:35;;;;;;;0.00;0.00;;;19.50;99.90;;;;;;5049953;28;20041;-70
2022/07/04 08:33:01;;;;;;;0.00;0.00;;;19.40;99.90;;;;;;5043722;28;20049;-70
2022/07/04 08:35:26;;;;;;;0.00;0.00;;;19.30;99.90;;;;;;5062098;28;20051;-70
2022/07/04 08:37:55;;;;;;;0.05;0.05;;;19.20;99.90;;;;;;5071205;28;20044;-70
2022/07/04 08:40:26;;;;;;;0.10;0.10;;;19.20;99.90;;;;;;5069838;28;20115;-70
2022/07/04 08:42:52;;;;;;;0.00;0.00;;;19.20;99.90;;;;;;5062741;28;20044;-70
2022/07/04 08:45:28;;;;;;;0.00;0.00;;;19.20;99.90;;;;;;5072609;28;20539;-70
2022/07/04 08:48:06;;;;;;;0.00;0.00;;;19.20;99.90;;;;;;5089826;28;20512;-70
2022/07/04 08:50:43;;;;;;;0.65;0.52;;;19.10;99.90;;;;;;5070013;28;20055;-70
2022/07/04 08:53:13;;;;;;;1.88;1.27;;;19.20;99.90;;;;;;5070791;28;20048;-70
2022/07/04 08:58:25;;;;;;;0.30;0.28;;;19.50;99.90;;;;;;5087958;28;20052;-69
2022/07/04 09:00:52;;;;;;;0.28;0.28;;;19.50;99.90;;;;;;5068697;28;20063;-70
2022/07/04 09:03:19;;;;;;;0.08;0.08;;;19.50;99.90;;;;;;5090591;28;20541;-70
2022/07/04 09:05:45;;;;;;;0.00;0.00;;;19.40;99.90;;;;;;5072643;28;20130;-70
2022/07/04 09:08:11;;;;;;;0.10;0.10;;;19.50;99.90;;;;;;5056753;28;20037;-70
2022/07/04 09:10:37;;;;;;;0.00;0.00;;;19.50;99.90;;;;;;5070405;28;20041;-70
2022/07/04 09:13:04;;;;;;;0.10;0.10;;;19.40;99.90;;;;;;5070925;28;20048;-70
2022/07/04 09:15:31;;;;;;;0.10;0.10;;;19.30;99.90;;;;;;5055569;28;20047;-70
2022/07/04 09:17:57;;;;;;;0.40;0.40;;;19.20;99.90;;;;;;5072644;28;20085;-70
2022/07/04 09:20:24;;;;;;;0.55;0.55;;;19.30;99.90;;;;;;5090632;28;20495;-70
2022/07/04 09:22:51;;;;;;;0.00;0.00;;;19.50;99.90;;;;;;5069287;28;20487;-70
2022/07/04 09:25:18;;;;;;;0.00;0.00;;;19.60;99.90;;;;;;5071969;28;20098;-70
2022/07/04 09:27:49;;;;;;;0.10;0.10;;;19.60;99.90;;;;;;5074368;28;20059;-70
2022/07/04 09:30:26;;;;;;;0.00;0.00;;;19.60;99.90;;;;;;5069503;28;20044;-70
2022/07/04 09:33:00;;;;;;;0.20;0.20;;;19.50;99.90;;;;;;5070610;28;20059;-70
2022/07/04 09:35:26;;;;;;;;;;;19.40;99.90;;;;;;5051638;28;20070;-70
2022/07/04 09:37:53;;;;;;;0.03;0.03;;;19.30;99.90;;;;;;5089459;28;19919;-70
2022/07/04 09:40:29;;;;;;;0.13;0.13;;;19.40;99.90;;;;;;5090178;28;20048;-70
2022/07/04 09:42:57;;;;;;;0.17;0.17;;;19.60;99.90;;;;;;5075731;28;20044;-70
2022/07/04 09:45:26;;;;;;;0.10;0.10;;;19.70;99.90;;;;;;5048143;28;20041;-71
2022/07/04 09:47:56;;;;;;;0.00;0.00;;;19.90;99.90;;;;;;5050385;28;20076;-69
2022/07/04 09:50:23;;;;;;;0.10;0.10;;;20.30;99.90;;;;;;5051979;28;20058;-70
2022/07/04 09:52:50;;;;;;;0.00;0.00;;;20.70;99.90;;;;;;5090024;28;20365;-70
2022/07/04 09:55:27;;;;;;;0.00;0.00;;;21.20;99.90;;;;;;5090076;28;20091;-70
2022/07/04 09:57:57;;;;;;;0.10;0.10;;;21.60;99.90;;;;;;5067505;28;20422;-70
2022/07/04 10:00:26;;;;;;;0.00;0.00;;;21.90;99.90;;;;;;5069507;28;20415;-69
2022/07/04 10:02:53;;;;;;;0.10;0.10;;;21.80;99.90;;;;;;5084358;28;20085;-70
2022/07/04 10:05:25;;;;;;;0.10;0.10;;;21.80;99.90;;;;;;5086558;28;20048;-70
2022/07/04 10:07:51;;;;;;;0.10;0.10;;;21.90;99.90;;;;;;5071520;28;20042;-70
2022/07/04 10:10:25;;;;;;;0.13;0.13;;;21.70;99.90;;;;;;5071640;28;20056;-70
2022/07/04 10:12:52;;;;;;;3.03;1.27;;;21.70;99.90;;;;;;5059348;28;20093;-70
2022/07/04 10:15:19;;;;;;;0.00;0.00;;;21.80;99.90;;;;;;5077364;28;20123;-70
2022/07/04 10:17:45;;;;;;;0.20;0.20;;;21.80;99.90;;;;;;5068741;28;20049;-70
2022/07/04 10:20:12;;;;;;;0.05;0.05;;;22.00;99.90;;;;;;5068391;28;20131;-70
2022/07/04 10:22:37;;;;;;;1.88;1.25;;;22.00;99.90;;;;;;5064755;28;20049;-70
2022/07/04 10:25:04;;;;;;;0.55;0.55;;;21.70;99.90;;;;;;5089631;28;20051;-70
2022/07/04 10:27:30;;;;;;;2.00;0.80;;;21.90;99.90;;;;;;5083303;28;20090;-70
2022/07/04 10:29:57;;;;;;;0.00;0.00;;;22.00;99.90;;;;;;5069736;28;20123;-70
2022/07/04 10:32:22;;;;;;;0.20;0.20;;;22.00;99.90;;;;;;5068789;28;20049;-70
2022/07/04 10:34:49;;;;;;;0.00;0.00;;;21.60;99.90;;;;;;5086668;28;20044;-69
2022/07/04 10:37:14;;;;;;;0.00;0.00;;;21.70;99.90;;;;;;5071363;28;20048;-69
2022/07/04 10:39:40;;;;;;;0.08;0.08;;;21.80;99.90;;;;;;5060696;28;20151;-70
2022/07/04 10:42:07;;;;;;;0.10;0.10;;;22.00;99.90;;;;;;5069353;28;20047;-70
2022/07/04 10:44:38;;;;;;;0.00;0.00;;;22.10;99.90;;;;;;5069610;28;20048;-70
2022/07/04 10:47:05;;;;;;;0.10;0.10;;;22.10;99.90;;;;;;5068744;28;20044;-70
2022/07/04 10:49:31;;;;;;;0.28;0.28;;;21.70;99.90;;;;;;5078646;28;20040;-69
2022/07/04 10:52:13;;;;;;;0.08;0.08;;;21.40;99.90;;;;;;5093462;28;20064;-70
2022/07/04 10:54:43;;;;;;;0.50;0.13;;;21.10;99.90;;;;;;5074553;28;20148;-70
2022/07/04 10:57:11;;;;;;;0.00;0.00;;;21.10;99.90;;;;;;5072965;28;20400;-70
2022/07/04 10:59:38;;;;;;;0.00;0.00;;;21.30;99.90;;;;;;5072848;28;20052;-70
2022/07/04 11:02:04;;;;;;;0.10;0.10;;;21.40;99.90;;;;;;5072312;28;20062;-70
2022/07/04 11:04:51;;;;;;;0.10;0.10;;;21.50;99.90;;;;;;5084136;28;20503;-71
2022/07/04 11:07:40;;;;;;;0.00;0.00;;;21.50;99.90;;;;;;5074652;28;20140;-70
2022/07/04 11:15:27;;;;;;;0.10;0.10;;;22.30;99.90;;;;;;5064196;28;20059;-69
2022/07/04 11:17:54;;;;;;;0.10;0.10;;;22.50;99.90;;;;;;5082142;28;20063;-69
2022/07/04 11:20:21;;;;;;;0.00;0.00;;;22.60;99.90;;;;;;5092529;28;20052;-69
2022/07/04 11:22:46;;;;;;;0.00;0.00;;;22.50;99.90;;;;;;5052683;28;20492;-69
2022/07/04 11:25:13;;;;;;;0.00;0.00;;;22.70;99.90;;;;;;5071138;28;20047;-69
2022/07/04 11:27:39;;;;;;;0.03;0.03;;;22.80;99.90;;;;;;5072490;28;20041;-69
2022/07/04 11:30:06;;;;;;;0.03;0.03;;;22.90;99.90;;;;;;5087723;28;20483;-70
2022/07/04 11:32:33;;;;;;;0.10;0.10;;;22.90;99.90;;;;;;5080528;28;20587;-70
2022/07/04 11:34:59;;;;;;;0.00;0.00;;;23.00;99.90;;;;;;5051010;28;20063;-70
2022/07/04 11:37:25;;;;;;;0.00;0.00;;;22.90;99.90;;;;;;5033458;28;20489;-69
2022/07/04 11:45:51;;;;;;;0.73;0.43;;;23.10;99.90;;;;;;5052951;28;20157;-69
2022/07/04 11:48:21;;;;;;;0.00;0.00;;;23.00;99.90;;;;;;5087404;28;20036;-70
2022/07/04 11:50:47;;;;;;;0.00;0.00;;;23.00;99.70;;;;;;5073415;28;20165;-69
2022/07/04 11:53:12;;;;;;;0.20;0.20;;;23.20;99.90;;;;;;5092086;28;20057;-70
2022/07/04 11:55:38;;;;;;;0.00;0.00;;;23.30;99.90;;;;;;5074245;28;20574;-70
2022/07/04 11:58:03;;;;;;;0.05;0.05;;;23.50;99.90;;;;;;5049423;28;20420;-70
2022/07/04 12:00:32;;;;;;;0.00;0.00;;;23.40;99.80;;;;;;5050376;28;20048;-70
2022/07/04 12:03:01;;;;;;;0.38;0.30;;;23.60;99.10;;;;;;5051822;28;20048;-70
2022/07/04 12:05:27;;;;;;;0.57;0.57;;;23.40;99.70;;;;;;5043607;28;20045;-70
2022/07/04 12:07:52;;;;;;;0.00;0.00;;;23.60;99.40;;;;;;5049014;28;20369;-70
2022/07/04 12:10:23;;;;;;;0.00;0.00;;;23.50;99.90;;;;;;5051373;28;20178;-70
2022/07/04 12:13:05;;;;;;;0.00;0.00;;;23.90;99.90;;;;;;5054533;28;20051;-69
2022/07/04 12:15:52;;;;;;;0.00;0.00;;;24.10;99.90;;;;;;5077606;28;20037;-69
2022/07/04 12:18:31;;;;;;;0.00;0.00;;;24.40;99.90;;;;;;5051076;28;20520;-69
2022/07/04 12:21:11;;;;;;;0.22;0.22;;;23.50;99.90;;;;;;5069490;28;20052;-68
2022/07/04 12:23:39;;;;;;;0.00;0.00;;;23.40;99.90;;;;;;5079301;28;20044;-69
2022/07/04 12:26:05;;;;;;;0.00;0.00;;;23.70;99.90;;;;;;5090409;28;20088;-69
2022/07/04 12:28:36;;;;;;;0.10;0.10;;;24.20;99.90;;;;;;5091564;28;20054;-69
2022/07/04 12:31:02;;;;;;;2.25;0.57;;;24.10;99.50;;;;;;5086477;28;20089;-69
2022/07/04 12:33:29;;;;;;;0.00;0.00;;;23.80;99.10;;;;;;5070291;28;20041;-70
2022/07/04 12:36:00;;;;;;;0.00;0.00;;;23.70;99.90;;;;;;5072852;28;20070;-69
2022/07/04 12:38:29;;;;;;;0.00;0.00;;;24.20;99.90;;;;;;5048779;28;20059;-69
2022/07/04 12:40:59;;;;;;;0.60;0.43;;;24.20;99.90;;;;;;5070264;28;20948;-69
2022/07/04 12:43:51;;;;;;;0.00;0.00;;;24.40;99.00;;;;;;5069527;28;20056;-69
2022/07/04 12:46:30;;;;;;;0.00;0.00;;;24.10;99.90;;;;;;5051995;28;20093;-70
2022/07/04 12:48:56;;;;;;;0.00;0.00;;;24.30;99.90;;;;;;5072382;28;20048;-70
2022/07/04 12:51:33;;;;;;;4.57;1.00;;;24.50;99.90;;;;;;5070496;28;20080;-67
2022/07/04 12:54:07;;;;;;;0.22;0.22;;;24.30;99.90;;;;;;5052308;28;20144;-68
2022/07/04 12:56:36;;;;;;;0.00;0.00;;;24.20;99.90;;;;;;5033680;28;20144;-68
2022/07/04 12:59:07;;;;;;;0.00;0.00;;;24.50;99.90;;;;;;5026866;28;20160;-68
2022/07/04 13:01:34;;;;;;;0.00;0.00;;;24.50;98.60;;;;;;5030090;28;20433;-67
2022/07/04 13:04:00;;;;;;;0.00;0.00;;;24.50;98.30;;;;;;5029267;28;20144;-68
2022/07/04 13:06:26;;;;;;;0.00;0.00;;;24.50;98.80;;;;;;5023755;28;20069;-68
2022/07/04 13:08:53;;;;;;;0.65;0.57;;;24.50;99.90;;;;;;5024103;28;20512;-68
2022/07/04 13:14:03;;;;;;;0.00;0.00;;;24.60;99.90;;;;;;5045513;28;20057;-68